sensor_id;sensor_type;location;lat;lon;timestamp;pressure;altitude;pressure_sealevel;temperature
20490;BMP280;10403;54.092;12.122;2022-07-10T00:01:38;102049.38;;;17.33
20490;BMP280;10403;54.092;12.122;2022-07-10T00:04:05;102063.25;;;17.45
20490;BMP280;10403;54.092;12.122;2022-07-10T00:06:33;102052.72;;;17.43
20490;BMP280;10403;54.092;12.122;2022-07-10T00:09:00;102059.84;;;17.39
20490;BMP280;10403;54.092;12.122;2022-07-10T00:11:27;102051.06;;;17.37
20490;BMP280;10403;54.092;12.122;2022-07-10T00:13:55;102047.69;;;17.31
20490;BMP280;10403;54.092;12.122;2022-07-10T00:16:22;102052.09;;;17.30
20490;BMP280;10403;54.092;12.122;2022-07-10T00:18:52;102057.41;;;17.30
20490;BMP280;10403;54.092;12.122;2022-07-10T00:21:22;102053.16;;;17.23
20490;BMP280;10403;54.092;12.122;2022-07-10T00:23:50;102027.72;;;17.15
20490;BMP280;10403;54.092;12.122;2022-07-10T00:26:17;102058.34;;;17.26
20490;BMP280;10403;54.092;12.122;2022-07-10T00:28:45;102042.56;;;17.23
20490;BMP280;10403;54.092;12.122;2022-07-10T00:31:12;102038.94;;;17.27
20490;BMP280;10403;54.092;12.122;2022-07-10T00:33:40;102041.94;;;17.11
20490;BMP280;10403;54.092;12.122;2022-07-10T00:36:07;102028.03;;;17.01
20490;BMP280;10403;54.092;12.122;2022-07-10T00:38:35;102019.25;;;16.99
20490;BMP280;10403;54.092;12.122;2022-07-10T00:41:03;102027.94;;;17.04
20490;BMP280;10403;54.092;12.122;2022-07-10T00:43:30;102024.50;;;17.02
20490;BMP280;10403;54.092;12.122;2022-07-10T00:45:57;102033.22;;;17.06
20490;BMP280;10403;54.092;12.122;2022-07-10T00:48:24;102037.53;;;17.11
20490;BMP280;10403;54.092;12.122;2022-07-10T00:50:51;102019.91;;;17.10
20490;BMP280;10403;54.092;12.122;2022-07-10T00:53:18;102028.78;;;17.06
20490;BMP280;10403;54.092;12.122;2022-07-10T00:55:54;102030.59;;;17.04
20490;BMP280;10403;54.092;12.122;2022-07-10T00:58:21;102032.28;;;17.08
20490;BMP280;10403;54.092;12.122;2022-07-10T01:00:48;102027.94;;;17.04
20490;BMP280;10403;54.092;12.122;2022-07-10T01:03:15;102018.41;;;16.97
20490;BMP280;10403;54.092;12.122;2022-07-10T01:05:42;102022.09;;;16.90
20490;BMP280;10403;54.092;12.122;2022-07-10T01:08:09;102019.59;;;16.82
20490;BMP280;10403;54.092;12.122;2022-07-10T01:10:38;102007.31;;;16.80
20490;BMP280;10403;54.092;12.122;2022-07-10T01:13:06;102012.78;;;16.71
20490;BMP280;10403;54.092;12.122;2022-07-10T01:15:33;102017.25;;;16.65
20490;BMP280;10403;54.092;12.122;2022-07-10T01:18:02;102012.94;;;16.61
20490;BMP280;10403;54.092;12.122;2022-07-10T01:20:31;102013.88;;;16.57
20490;BMP280;10403;54.092;12.122;2022-07-10T01:23:02;102019.22;;;16.54
20490;BMP280;10403;54.092;12.122;2022-07-10T01:25:29;102001.66;;;16.52
20490;BMP280;10403;54.092;12.122;2022-07-10T01:27:56;102012.13;;;16.56
20490;BMP280;10403;54.092;12.122;2022-07-10T01:30:27;101999.72;;;16.63
20490;BMP280;10403;54.092;12.122;2022-07-10T01:32:54;102012.75;;;16.72
20490;BMP280;10403;54.092;12.122;2022-07-10T01:35:21;101997.78;;;16.73
20490;BMP280;10403;54.092;12.122;2022-07-10T01:37:48;101987.19;;;16.73
20490;BMP280;10403;54.092;12.122;2022-07-10T01:40:15;101995.19;;;16.68
20490;BMP280;10403;54.092;12.122;2022-07-10T01:42:42;101990.66;;;16.75
20490;BMP280;10403;54.092;12.122;2022-07-10T01:45:10;101998.47;;;16.82
20490;BMP280;10403;54.092;12.122;2022-07-10T01:47:37;101990.50;;;16.84
20490;BMP280;10403;54.092;12.122;2022-07-10T01:50:05;101996.72;;;16.81
20490;BMP280;10403;54.092;12.122;2022-07-10T01:52:33;101987.09;;;16.77
20490;BMP280;10403;54.092;12.122;2022-07-10T01:55:00;101991.59;;;16.74
20490;BMP280;10403;54.092;12.122;2022-07-10T01:57:27;101990.84;;;16.65
20490;BMP280;10403;54.092;12.122;2022-07-10T01:59:54;101985.63;;;16.62
20490;BMP280;10403;54.092;12.122;2022-07-10T02:02:21;101993.56;;;16.62
20490;BMP280;10403;54.092;12.122;2022-07-10T02:04:48;101988.25;;;16.64
20490;BMP280;10403;54.092;12.122;2022-07-10T02:07:19;101976.69;;;16.70
20490;BMP280;10403;54.092;12.122;2022-07-10T02:09:48;101987.25;;;16.70
20490;BMP280;10403;54.092;12.122;2022-07-10T02:12:15;101979.34;;;16.68
20490;BMP280;10403;54.092;12.122;2022-07-10T02:14:43;101975.06;;;16.62
20490;BMP280;10403;54.092;12.122;2022-07-10T02:17:10;101977.69;;;16.64
20490;BMP280;10403;54.092;12.122;2022-07-10T02:19:38;101981.97;;;16.68
20490;BMP280;10403;54.092;12.122;2022-07-10T02:22:05;101988.16;;;16.67
20490;BMP280;10403;54.092;12.122;2022-07-10T02:24:32;101985.63;;;16.62
20490;BMP280;10403;54.092;12.122;2022-07-10T02:26:59;101978.66;;;16.57
20490;BMP280;10403;54.092;12.122;2022-07-10T02:29:26;101977.78;;;16.56
20490;BMP280;10403;54.092;12.122;2022-07-10T02:31:53;101980.34;;;16.61
20490;BMP280;10403;54.092;12.122;2022-07-10T02:34:20;101976.88;;;16.57
20490;BMP280;10403;54.092;12.122;2022-07-10T02:36:47;101974.16;;;16.63
20490;BMP280;10403;54.092;12.122;2022-07-10T02:39:14;101968.88;;;16.63
20490;BMP280;10403;54.092;12.122;2022-07-10T02:42:00;101989.03;;;16.68
20490;BMP280;10403;54.092;12.122;2022-07-10T02:44:27;101976.72;;;16.67
20490;BMP280;10403;54.092;12.122;2022-07-10T02:46:56;101980.22;;;16.69
20490;BMP280;10403;54.092;12.122;2022-07-10T02:49:23;101979.41;;;16.65
20490;BMP280;10403;54.092;12.122;2022-07-10T02:51:50;101978.56;;;16.64
20490;BMP280;10403;54.092;12.122;2022-07-10T02:54:17;101975.13;;;16.56
20490;BMP280;10403;54.092;12.122;2022-07-10T02:56:44;101987.41;;;16.59
20490;BMP280;10403;54.092;12.122;2022-07-10T02:59:11;101970.84;;;16.51
20490;BMP280;10403;54.092;12.122;2022-07-10T03:01:38;101982.16;;;16.57
20490;BMP280;10403;54.092;12.122;2022-07-10T03:04:05;101982.16;;;16.57
20490;BMP280;10403;54.092;12.122;2022-07-10T03:06:32;101989.16;;;16.61
20490;BMP280;10403;54.092;12.122;2022-07-10T03:08:59;101981.25;;;16.60
20490;BMP280;10403;54.092;12.122;2022-07-10T03:11:26;101990.03;;;16.62
20490;BMP280;10403;54.092;12.122;2022-07-10T03:13:53;101967.34;;;16.50
20490;BMP280;10403;54.092;12.122;2022-07-10T03:16:20;101995.41;;;16.56
20490;BMP280;10403;54.092;12.122;2022-07-10T03:18:47;101991.06;;;16.53
20490;BMP280;10403;54.092;12.122;2022-07-10T03:21:14;101991.13;;;16.50
20490;BMP280;10403;54.092;12.122;2022-07-10T03:23:41;101984.03;;;16.52
20490;BMP280;10403;54.092;12.122;2022-07-10T03:26:08;101978.59;;;16.60
20490;BMP280;10403;54.092;12.122;2022-07-10T03:28:35;101970.81;;;16.52
20490;BMP280;10403;54.092;12.122;2022-07-10T03:31:03;101969.09;;;16.50
20490;BMP280;10403;54.092;12.122;2022-07-10T03:33:30;101983.00;;;16.59
20490;BMP280;10403;54.092;12.122;2022-07-10T03:35:57;101984.63;;;16.68
20490;BMP280;10403;54.092;12.122;2022-07-10T03:38:24;101971.19;;;16.80
20490;BMP280;10403;54.092;12.122;2022-07-10T03:40:51;101991.94;;;16.98
20490;BMP280;10403;54.092;12.122;2022-07-10T03:43:18;101970.72;;;17.03
20490;BMP280;10403;54.092;12.122;2022-07-10T03:45:45;101989.66;;;17.23
20490;BMP280;10403;54.092;12.122;2022-07-10T03:48:12;101990.28;;;17.34
20490;BMP280;10403;54.092;12.122;2022-07-10T03:50:39;101990.94;;;17.44
20490;BMP280;10403;54.092;12.122;2022-07-10T03:53:06;101995.09;;;17.56
20490;BMP280;10403;54.092;12.122;2022-07-10T03:55:33;101987.03;;;17.62
20490;BMP280;10403;54.092;12.122;2022-07-10T03:58:00;101992.25;;;17.65
20490;BMP280;10403;54.092;12.122;2022-07-10T04:00:30;101989.25;;;17.80
20490;BMP280;10403;54.092;12.122;2022-07-10T04:03:05;102000.38;;;17.94
20490;BMP280;10403;54.092;12.122;2022-07-10T04:05:32;101991.22;;;18.07
20490;BMP280;10403;54.092;12.122;2022-07-10T04:08:02;101994.38;;;18.22
20490;BMP280;10403;54.092;12.122;2022-07-10T04:10:30;101988.75;;;18.34
20490;BMP280;10403;54.092;12.122;2022-07-10T04:13:00;101986.66;;;18.46
20490;BMP280;10403;54.092;12.122;2022-07-10T04:15:28;101984.59;;;18.59
20490;BMP280;10403;54.092;12.122;2022-07-10T04:17:55;101983.50;;;18.66
20490;BMP280;10403;54.092;12.122;2022-07-10T04:20:22;101982.41;;;18.73
20490;BMP280;10403;54.092;12.122;2022-07-10T04:22:50;101984.75;;;18.84
20490;BMP280;10403;54.092;12.122;2022-07-10T04:25:17;101978.34;;;18.91
20490;BMP280;10403;54.092;12.122;2022-07-10T04:27:44;101983.19;;;19.08
20490;BMP280;10403;54.092;12.122;2022-07-10T04:30:11;101970.56;;;19.16
20490;BMP280;10403;54.092;12.122;2022-07-10T04:32:39;101970.34;;;19.22
20490;BMP280;10403;54.092;12.122;2022-07-10T04:35:06;101974.38;;;19.06
20490;BMP280;10403;54.092;12.122;2022-07-10T04:37:33;101970.66;;;18.82
20490;BMP280;10403;54.092;12.122;2022-07-10T04:40:01;101970.63;;;18.51
20490;BMP280;10403;54.092;12.122;2022-07-10T04:42:28;101964.91;;;18.34
20490;BMP280;10403;54.092;12.122;2022-07-10T04:44:55;101976.75;;;18.21
20490;BMP280;10403;54.092;12.122;2022-07-10T04:47:22;101968.47;;;18.00
20490;BMP280;10403;54.092;12.122;2022-07-10T04:49:49;101977.53;;;17.90
20490;BMP280;10403;54.092;12.122;2022-07-10T04:52:16;101976.88;;;17.82
20490;BMP280;10403;54.092;12.122;2022-07-10T04:54:43;101966.44;;;17.74
20490;BMP280;10403;54.092;12.122;2022-07-10T04:57:10;101976.31;;;17.68
20490;BMP280;10403;54.092;12.122;2022-07-10T04:59:37;101990.66;;;17.56
20490;BMP280;10403;54.092;12.122;2022-07-10T05:02:04;101991.75;;;17.48
20490;BMP280;10403;54.092;12.122;2022-07-10T05:04:31;101989.31;;;17.38
20490;BMP280;10403;54.092;12.122;2022-07-10T05:06:59;101982.44;;;17.31
20490;BMP280;10403;54.092;12.122;2022-07-10T05:09:26;101988.63;;;17.30
20490;BMP280;10403;54.092;12.122;2022-07-10T05:11:53;101995.63;;;17.33
20490;BMP280;10403;54.092;12.122;2022-07-10T05:14:20;101998.31;;;17.31
20490;BMP280;10403;54.092;12.122;2022-07-10T05:16:47;101998.22;;;17.34
20490;BMP280;10403;54.092;12.122;2022-07-10T05:19:14;101995.34;;;17.44
20490;BMP280;10403;54.092;12.122;2022-07-10T05:21:41;101995.28;;;17.48
20490;BMP280;10403;54.092;12.122;2022-07-10T05:24:08;101996.06;;;17.52
20490;BMP280;10403;54.092;12.122;2022-07-10T05:26:35;102004.47;;;17.72
20490;BMP280;10403;54.092;12.122;2022-07-10T05:29:03;101983.31;;;18.06
20490;BMP280;10403;54.092;12.122;2022-07-10T05:31:30;101986.75;;;18.42
20490;BMP280;10403;54.092;12.122;2022-07-10T05:33:57;102000.31;;;18.65
20490;BMP280;10403;54.092;12.122;2022-07-10T05:36:25;101999.97;;;18.77
20490;BMP280;10403;54.092;12.122;2022-07-10T05:38:52;101994.97;;;18.67
20490;BMP280;10403;54.092;12.122;2022-07-10T05:41:19;102000.50;;;18.59
20490;BMP280;10403;54.092;12.122;2022-07-10T05:43:46;101998.16;;;18.45
20490;BMP280;10403;54.092;12.122;2022-07-10T05:46:13;101990.56;;;18.32
20490;BMP280;10403;54.092;12.122;2022-07-10T05:48:40;101983.56;;;18.31
20490;BMP280;10403;54.092;12.122;2022-07-10T05:51:07;101999.28;;;18.37
20490;BMP280;10403;54.092;12.122;2022-07-10T05:53:54;102010.22;;;18.23
20490;BMP280;10403;54.092;12.122;2022-07-10T05:56:21;101988.78;;;18.00
20490;BMP280;10403;54.092;12.122;2022-07-10T05:58:48;101993.31;;;17.93
20490;BMP280;10403;54.092;12.122;2022-07-10T06:01:16;102003.84;;;17.96
20490;BMP280;10403;54.092;12.122;2022-07-10T06:03:43;101988.00;;;17.95
20490;BMP280;10403;54.092;12.122;2022-07-10T06:06:12;102002.03;;;17.98
20490;BMP280;10403;54.092;12.122;2022-07-10T06:08:44;101995.00;;;17.97
20490;BMP280;10403;54.092;12.122;2022-07-10T06:11:11;102001.13;;;17.99
20490;BMP280;10403;54.092;12.122;2022-07-10T06:13:39;102002.97;;;17.96
20490;BMP280;10403;54.092;12.122;2022-07-10T06:16:06;102001.28;;;17.93
20490;BMP280;10403;54.092;12.122;2022-07-10T06:18:34;101999.59;;;17.91
20490;BMP280;10403;54.092;12.122;2022-07-10T06:21:01;101995.28;;;17.85
20490;BMP280;10403;54.092;12.122;2022-07-10T06:23:29;102007.56;;;17.89
20490;BMP280;10403;54.092;12.122;2022-07-10T06:25:56;102007.44;;;17.94
20490;BMP280;10403;54.092;12.122;2022-07-10T06:28:24;102017.06;;;17.98
20490;BMP280;10403;54.092;12.122;2022-07-10T06:30:51;102005.66;;;17.94
20490;BMP280;10403;54.092;12.122;2022-07-10T06:33:26;102011.13;;;17.88
20490;BMP280;10403;54.092;12.122;2022-07-10T06:35:53;102002.19;;;17.92
20490;BMP280;10403;54.092;12.122;2022-07-10T06:38:20;102003.03;;;17.93
20490;BMP280;10403;54.092;12.122;2022-07-10T06:40:47;101993.25;;;17.96
20490;BMP280;10403;54.092;12.122;2022-07-10T06:43:14;102005.53;;;18.00
20490;BMP280;10403;54.092;12.122;2022-07-10T06:45:41;102010.91;;;17.97
20490;BMP280;10403;54.092;12.122;2022-07-10T06:48:08;101997.47;;;18.03
20490;BMP280;10403;54.092;12.122;2022-07-10T06:50:36;102004.81;;;18.28
20490;BMP280;10403;54.092;12.122;2022-07-10T06:53:05;102009.72;;;18.43
20490;BMP280;10403;54.092;12.122;2022-07-10T06:55:33;102001.56;;;18.51
20490;BMP280;10403;54.092;12.122;2022-07-10T06:58:01;102014.66;;;18.58
20490;BMP280;10403;54.092;12.122;2022-07-10T07:00:28;102002.47;;;18.49
20490;BMP280;10403;54.092;12.122;2022-07-10T07:02:55;102010.47;;;18.48
20490;BMP280;10403;54.092;12.122;2022-07-10T07:05:23;102007.06;;;18.43
20490;BMP280;10403;54.092;12.122;2022-07-10T07:07:52;101996.63;;;18.37
20490;BMP280;10403;54.092;12.122;2022-07-10T07:10:19;101997.38;;;18.42
20490;BMP280;10403;54.092;12.122;2022-07-10T07:12:46;101999.03;;;18.46
20490;BMP280;10403;54.092;12.122;2022-07-10T07:15:13;102004.59;;;18.37
20490;BMP280;10403;54.092;12.122;2022-07-10T07:17:43;102008.97;;;18.38
20490;BMP280;10403;54.092;12.122;2022-07-10T07:20:29;102012.63;;;18.32
20490;BMP280;10403;54.092;12.122;2022-07-10T07:23:14;102011.97;;;18.24
20490;BMP280;10403;54.092;12.122;2022-07-10T07:25:42;102013.69;;;18.27
20490;BMP280;10403;54.092;12.122;2022-07-10T07:28:16;102022.28;;;18.35
20490;BMP280;10403;54.092;12.122;2022-07-10T07:30:48;102018.50;;;18.45
20490;BMP280;10403;54.092;12.122;2022-07-10T07:33:16;102027.00;;;18.59
20490;BMP280;10403;54.092;12.122;2022-07-10T07:35:43;102028.00;;;18.52
20490;BMP280;10403;54.092;12.122;2022-07-10T07:38:10;102029.66;;;18.59
20490;BMP280;10403;54.092;12.122;2022-07-10T07:40:37;102039.72;;;18.79
20490;BMP280;10403;54.092;12.122;2022-07-10T07:43:05;102028.69;;;18.93
20490;BMP280;10403;54.092;12.122;2022-07-10T07:45:32;102037.97;;;19.09
20490;BMP280;10403;54.092;12.122;2022-07-10T07:48:00;102050.53;;;19.02
20490;BMP280;10403;54.092;12.122;2022-07-10T07:50:31;102035.81;;;18.91
20490;BMP280;10403;54.092;12.122;2022-07-10T07:53:01;102026.00;;;18.94
20490;BMP280;10403;54.092;12.122;2022-07-10T07:55:32;102027.72;;;18.97
20490;BMP280;10403;54.092;12.122;2022-07-10T07:58:01;102048.03;;;18.98
20490;BMP280;10403;54.092;12.122;2022-07-10T08:00:30;102033.53;;;18.78
20490;BMP280;10403;54.092;12.122;2022-07-10T08:02:58;102028.50;;;18.69
20490;BMP280;10403;54.092;12.122;2022-07-10T08:05:28;102032.13;;;18.65
20490;BMP280;10403;54.092;12.122;2022-07-10T08:07:58;102030.78;;;18.49
20490;BMP280;10403;54.092;12.122;2022-07-10T08:10:27;102037.28;;;18.36
20490;BMP280;10403;54.092;12.122;2022-07-10T08:12:54;102031.44;;;18.22
20490;BMP280;10403;54.092;12.122;2022-07-10T08:15:22;102036.75;;;18.22
20490;BMP280;10403;54.092;12.122;2022-07-10T08:17:53;102032.84;;;18.36
20490;BMP280;10403;54.092;12.122;2022-07-10T08:20:22;102023.63;;;18.51
20490;BMP280;10403;54.092;12.122;2022-07-10T08:22:49;102022.38;;;18.66
20490;BMP280;10403;54.092;12.122;2022-07-10T08:25:25;102026.38;;;18.80
20490;BMP280;10403;54.092;12.122;2022-07-10T08:27:52;102025.53;;;18.80
20490;BMP280;10403;54.092;12.122;2022-07-10T08:30:19;102020.28;;;18.78
20490;BMP280;10403;54.092;12.122;2022-07-10T08:32:46;102027.09;;;18.87
20490;BMP280;10403;54.092;12.122;2022-07-10T08:35:14;102036.84;;;18.87
20490;BMP280;10403;54.092;12.122;2022-07-10T08:37:45;102026.38;;;18.80
20490;BMP280;10403;54.092;12.122;2022-07-10T08:40:16;102027.25;;;18.81
20490;BMP280;10403;54.092;12.122;2022-07-10T08:42:44;102040.63;;;18.78
20490;BMP280;10403;54.092;12.122;2022-07-10T08:45:14;102039.16;;;18.66
20490;BMP280;10403;54.092;12.122;2022-07-10T08:47:42;102034.81;;;18.64
20490;BMP280;10403;54.092;12.122;2022-07-10T08:50:17;102046.28;;;18.64
20490;BMP280;10403;54.092;12.122;2022-07-10T08:53:06;102040.03;;;18.67
20490;BMP280;10403;54.092;12.122;2022-07-10T08:55:36;102041.50;;;18.78
20490;BMP280;10403;54.092;12.122;2022-07-10T08:58:04;102049.19;;;18.88
20490;BMP280;10403;54.092;12.122;2022-07-10T09:00:31;102034.16;;;18.88
20490;BMP280;10403;54.092;12.122;2022-07-10T09:02:59;102042.06;;;18.90
20490;BMP280;10403;54.092;12.122;2022-07-10T09:05:27;102044.13;;;18.78
20490;BMP280;10403;54.092;12.122;2022-07-10T09:07:54;102046.75;;;18.80
20490;BMP280;10403;54.092;12.122;2022-07-10T09:10:27;102039.44;;;18.88
20490;BMP280;10403;54.092;12.122;2022-07-10T09:12:58;102034.56;;;19.04
20490;BMP280;10403;54.092;12.122;2022-07-10T09:15:29;102045.75;;;19.15
20490;BMP280;10403;54.092;12.122;2022-07-10T09:18:03;102052.94;;;19.10
20490;BMP280;10403;54.092;12.122;2022-07-10T09:20:35;102049.69;;;19.00
20490;BMP280;10403;54.092;12.122;2022-07-10T09:23:21;102050.47;;;19.04
20490;BMP280;10403;54.092;12.122;2022-07-10T09:25:52;102049.31;;;19.14
20490;BMP280;10403;54.092;12.122;2022-07-10T09:28:21;102046.47;;;19.20
20490;BMP280;10403;54.092;12.122;2022-07-10T09:30:49;102060.47;;;19.25
20490;BMP280;10403;54.092;12.122;2022-07-10T09:33:28;102048.81;;;19.31
20490;BMP280;10403;54.092;12.122;2022-07-10T09:36:10;102044.06;;;19.42
20490;BMP280;10403;54.092;12.122;2022-07-10T09:41:23;102058.13;;;19.45
20490;BMP280;10403;54.092;12.122;2022-07-10T09:43:55;102050.47;;;19.35
20490;BMP280;10403;54.092;12.122;2022-07-10T09:46:26;102046.97;;;19.33
20490;BMP280;10403;54.092;12.122;2022-07-10T09:49:12;102062.06;;;19.31
20490;BMP280;10403;54.092;12.122;2022-07-10T09:51:44;102053.25;;;19.30
20490;BMP280;10403;54.092;12.122;2022-07-10T09:54:16;102064.06;;;19.24
20490;BMP280;10403;54.092;12.122;2022-07-10T09:56:48;102058.81;;;19.21
20490;BMP280;10403;54.092;12.122;2022-07-10T09:59:20;102077.31;;;19.24
20490;BMP280;10403;54.092;12.122;2022-07-10T10:01:50;102058.66;;;19.27
20490;BMP280;10403;54.092;12.122;2022-07-10T10:04:21;102053.13;;;19.35
20490;BMP280;10403;54.092;12.122;2022-07-10T10:06:54;102073.22;;;19.43
20490;BMP280;10403;54.092;12.122;2022-07-10T10:09:30;102065.00;;;19.52
20490;BMP280;10403;54.092;12.122;2022-07-10T10:12:12;102054.97;;;19.62
20490;BMP280;10403;54.092;12.122;2022-07-10T10:14:44;102064.63;;;19.65
20490;BMP280;10403;54.092;12.122;2022-07-10T10:17:12;102064.84;;;19.58
20490;BMP280;10403;54.092;12.122;2022-07-10T10:19:40;102059.53;;;19.58
20490;BMP280;10403;54.092;12.122;2022-07-10T10:22:28;102060.53;;;19.54
20490;BMP280;10403;54.092;12.122;2022-07-10T10:24:55;102068.88;;;19.39
20490;BMP280;10403;54.092;12.122;2022-07-10T10:27:24;102072.75;;;19.29
20490;BMP280;10403;54.092;12.122;2022-07-10T10:29:52;102076.41;;;19.25
20490;BMP280;10403;54.092;12.122;2022-07-10T10:32:19;102071.09;;;19.25
20490;BMP280;10403;54.092;12.122;2022-07-10T10:34:49;102073.00;;;19.20
20490;BMP280;10403;54.092;12.122;2022-07-10T10:37:39;102072.31;;;19.13
20490;BMP280;10403;54.092;12.122;2022-07-10T10:40:32;102064.25;;;19.18
20490;BMP280;10403;54.092;12.122;2022-07-10T10:43:23;102078.09;;;19.28
20490;BMP280;10403;54.092;12.122;2022-07-10T10:45:51;102079.97;;;19.24
20490;BMP280;10403;54.092;12.122;2022-07-10T10:48:19;102083.38;;;19.29
20490;BMP280;10403;54.092;12.122;2022-07-10T10:51:05;102065.47;;;19.36
20490;BMP280;10403;54.092;12.122;2022-07-10T10:53:32;102077.53;;;19.47
20490;BMP280;10403;54.092;12.122;2022-07-10T10:58:38;102072.84;;;19.57
20490;BMP280;10403;54.092;12.122;2022-07-10T11:12:11;102076.44;;;19.54
20490;BMP280;10403;54.092;12.122;2022-07-10T11:14:45;102066.75;;;19.53
20490;BMP280;10403;54.092;12.122;2022-07-10T11:17:14;102075.34;;;19.62
20490;BMP280;10403;54.092;12.122;2022-07-10T11:19:41;102076.16;;;19.64
20490;BMP280;10403;54.092;12.122;2022-07-10T11:22:47;102060.56;;;19.53
20490;BMP280;10403;54.092;12.122;2022-07-10T11:28:08;102084.50;;;19.51
20490;BMP280;10403;54.092;12.122;2022-07-10T11:30:55;102072.28;;;19.44
20490;BMP280;10403;54.092;12.122;2022-07-10T11:33:23;102073.78;;;19.54
20490;BMP280;10403;54.092;12.122;2022-07-10T11:35:52;102080.69;;;19.60
20490;BMP280;10403;54.092;12.122;2022-07-10T11:38:25;102064.84;;;19.58
20490;BMP280;10403;54.092;12.122;2022-07-10T11:40:53;102082.38;;;19.63
20490;BMP280;10403;54.092;12.122;2022-07-10T11:43:23;102077.66;;;19.72
20490;BMP280;10403;54.092;12.122;2022-07-10T11:45:52;102075.75;;;19.77
20490;BMP280;10403;54.092;12.122;2022-07-10T11:48:26;102089.94;;;19.76
20490;BMP280;10403;54.092;12.122;2022-07-10T11:50:54;102070.44;;;19.77
20490;BMP280;10403;54.092;12.122;2022-07-10T11:53:26;102079.03;;;19.85
20490;BMP280;10403;54.092;12.122;2022-07-10T11:55:53;102084.81;;;19.98
20490;BMP280;10403;54.092;12.122;2022-07-10T11:58:21;102067.78;;;20.05
20490;BMP280;10403;54.092;12.122;2022-07-10T12:01:03;102077.00;;;20.20
20490;BMP280;10403;54.092;12.122;2022-07-10T12:03:35;102079.31;;;20.30
20490;BMP280;10403;54.092;12.122;2022-07-10T12:06:05;102070.47;;;20.30
20490;BMP280;10403;54.092;12.122;2022-07-10T12:08:46;102062.47;;;20.31
20490;BMP280;10403;54.092;12.122;2022-07-10T12:11:16;102069.22;;;20.42
20490;BMP280;10403;54.092;12.122;2022-07-10T12:13:46;102063.13;;;20.38
20490;BMP280;10403;54.092;12.122;2022-07-10T12:16:15;102060.72;;;20.30
20490;BMP280;10403;54.092;12.122;2022-07-10T12:18:44;102055.88;;;20.17
20490;BMP280;10403;54.092;12.122;2022-07-10T12:21:14;102045.06;;;19.95
20490;BMP280;10403;54.092;12.122;2022-07-10T12:23:43;102066.34;;;19.95
20490;BMP280;10403;54.092;12.122;2022-07-10T12:26:12;102045.41;;;19.84
20490;BMP280;10403;54.092;12.122;2022-07-10T12:28:56;102060.41;;;19.87
20490;BMP280;10403;54.092;12.122;2022-07-10T12:31:29;102035.56;;;19.88
20490;BMP280;10403;54.092;12.122;2022-07-10T12:34:04;102056.31;;;20.03
20490;BMP280;10403;54.092;12.122;2022-07-10T12:36:53;102058.66;;;20.12
20490;BMP280;10403;54.092;12.122;2022-07-10T12:39:24;102068.00;;;20.25
20490;BMP280;10403;54.092;12.122;2022-07-10T12:44:44;102065.94;;;20.33
20490;BMP280;10403;54.092;12.122;2022-07-10T12:47:19;102066.66;;;20.39
20490;BMP280;10403;54.092;12.122;2022-07-10T12:50:06;102077.16;;;20.43
20490;BMP280;10403;54.092;12.122;2022-07-10T12:52:39;102075.19;;;20.48
20490;BMP280;10403;54.092;12.122;2022-07-10T12:55:20;102070.00;;;20.45
20490;BMP280;10403;54.092;12.122;2022-07-10T12:57:56;102058.88;;;20.32
20490;BMP280;10403;54.092;12.122;2022-07-10T13:00:33;102064.28;;;20.29
20490;BMP280;10403;54.092;12.122;2022-07-10T13:03:07;102058.53;;;20.17
20490;BMP280;10403;54.092;12.122;2022-07-10T13:05:42;102062.09;;;20.16
20490;BMP280;10403;54.092;12.122;2022-07-10T13:08:20;102068.47;;;20.10
20490;BMP280;10403;54.092;12.122;2022-07-10T13:10:57;102063.38;;;20.04
20490;BMP280;10403;54.092;12.122;2022-07-10T13:13:25;102072.25;;;20.03
20490;BMP280;10403;54.092;12.122;2022-07-10T13:15:53;102072.03;;;20.09
20490;BMP280;10403;54.092;12.122;2022-07-10T13:18:23;102056.78;;;20.16
20490;BMP280;10403;54.092;12.122;2022-07-10T13:20:54;102059.28;;;20.20
20490;BMP280;10403;54.092;12.122;2022-07-10T13:23:26;102072.47;;;20.23
20490;BMP280;10403;54.092;12.122;2022-07-10T13:25:55;102064.41;;;20.26
20490;BMP280;10403;54.092;12.122;2022-07-10T13:28:23;102067.72;;;20.33
20490;BMP280;10403;54.092;12.122;2022-07-10T13:30:51;102067.50;;;20.41
20490;BMP280;10403;54.092;12.122;2022-07-10T13:33:18;102069.97;;;20.47
20490;BMP280;10403;54.092;12.122;2022-07-10T13:35:45;102064.41;;;20.53
20490;BMP280;10403;54.092;12.122;2022-07-10T13:38:12;102074.75;;;20.62
20490;BMP280;10403;54.092;12.122;2022-07-10T13:40:44;102066.44;;;20.71
20490;BMP280;10403;54.092;12.122;2022-07-10T13:43:13;102068.19;;;20.72
20490;BMP280;10403;54.092;12.122;2022-07-10T13:45:40;102042.59;;;20.68
20490;BMP280;10403;54.092;12.122;2022-07-10T13:48:12;102064.41;;;20.78
20490;BMP280;10403;54.092;12.122;2022-07-10T13:50:41;102064.41;;;20.78
20490;BMP280;10403;54.092;12.122;2022-07-10T13:53:08;102053.00;;;20.76
20490;BMP280;10403;54.092;12.122;2022-07-10T13:55:36;102053.00;;;20.76
20490;BMP280;10403;54.092;12.122;2022-07-10T13:58:04;102048.63;;;20.73
20490;BMP280;10403;54.092;12.122;2022-07-10T14:00:31;102055.50;;;20.79
20490;BMP280;10403;54.092;12.122;2022-07-10T14:02:58;102067.06;;;20.78
20490;BMP280;10403;54.092;12.122;2022-07-10T14:05:28;102066.09;;;20.80
20490;BMP280;10403;54.092;12.122;2022-07-10T14:07:55;102067.94;;;20.78
20490;BMP280;10403;54.092;12.122;2022-07-10T14:10:23;102056.66;;;20.72
20490;BMP280;10403;54.092;12.122;2022-07-10T14:12:53;102074.31;;;20.74
20490;BMP280;10403;54.092;12.122;2022-07-10T14:15:21;102088.59;;;20.72
20490;BMP280;10403;54.092;12.122;2022-07-10T14:17:48;102066.59;;;20.66
20490;BMP280;10403;54.092;12.122;2022-07-10T14:20:17;102056.91;;;20.65